Time;durP1;ratioP1;P1;durP2;ratioP2;P2;SDS_P1;SDS_P2;PMS_P1;PMS_P2;Temp;Humidity;BMP_temperature;BMP_pressure;BME280_temperature;BME280_humidity;BME280_pressure;Samples;Min_cycle;Max_cycle;Signal;HPM_P1;HPM_P2
2022/08/15 00:02:29;;;;;;;13.80;6.00;;;;;;;18.69;91.47;99474.48;105742;1271;24227;-67
2022/08/15 00:05:01;;;;;;;12.00;5.10;;;;;;;18.64;91.64;99475.16;105822;1271;25523;-66
2022/08/15 00:07:33;;;;;;;16.80;6.60;;;;;;;18.61;91.52;99475.97;105848;1271;24438;-66
2022/08/15 00:10:06;;;;;;;15.00;5.30;;;;;;;18.58;91.57;99471.91;105854;1271;22720;-68
2022/08/15 00:12:38;;;;;;;14.40;6.10;;;;;;;18.56;91.37;99468.58;106127;1271;22707;-66
2022/08/15 00:15:14;;;;;;;14.40;5.60;;;;;;;18.55;91.30;99473.41;106056;1271;25430;-66
2022/08/15 00:17:48;;;;;;;13.00;5.30;;;;;;;18.51;91.21;99474.25;105985;1271;22582;-66
2022/08/15 00:20:21;;;;;;;14.20;5.60;;;;;;;18.47;91.20;99477.81;105777;1271;25554;-66
2022/08/15 00:22:54;;;;;;;14.30;5.70;;;;;;;18.43;91.15;99474.02;105767;1271;25031;-66
2022/08/15 00:25:25;;;;;;;14.50;5.90;;;;;;;18.40;91.08;99468.04;105860;1271;22725;-66
2022/08/15 00:27:57;;;;;;;13.00;5.80;;;;;;;18.37;91.24;99471.36;105705;1270;26126;-67
2022/08/15 00:30:28;;;;;;;15.70;5.70;;;;;;;18.33;91.23;99475.05;105899;1270;25715;-67
2022/08/15 00:33:01;;;;;;;17.30;6.20;;;;;;;18.31;91.26;99475.30;105815;1271;25522;-66
2022/08/15 00:35:40;;;;;;;16.00;5.70;;;;;;;18.28;91.34;99478.40;105878;1270;22692;-66
2022/08/15 00:38:16;;;;;;;12.50;5.30;;;;;;;18.28;91.32;99483.45;105823;1270;25387;-67
2022/08/15 00:43:43;;;;;;;14.50;6.30;;;;;;;18.28;91.60;99490.06;105752;1270;23913;-66
2022/08/15 00:46:16;;;;;;;15.40;6.30;;;;;;;18.28;92.08;99483.86;105759;1270;22548;-67
2022/08/15 00:48:49;;;;;;;15.10;7.10;;;;;;;18.27;92.22;99481.77;105944;1270;24236;-66
2022/08/15 00:51:26;;;;;;;18.30;6.70;;;;;;;18.26;92.14;99486.36;105747;1270;22555;-67
2022/08/15 00:54:04;;;;;;;16.40;6.00;;;;;;;18.24;92.03;99482.23;105898;1270;24420;-67
2022/08/15 00:56:41;;;;;;;16.80;6.30;;;;;;;18.23;92.24;99471.08;105971;1270;22595;-67
2022/08/15 00:59:15;;;;;;;14.30;6.40;;;;;;;18.21;92.33;99474.67;105695;1271;23194;-66
2022/08/15 01:01:47;;;;;;;16.10;6.20;;;;;;;18.20;92.18;99471.39;105852;1270;22608;-67
2022/08/15 01:04:21;;;;;;;13.50;5.80;;;;;;;18.19;92.35;99470.28;105959;1270;25365;-67
2022/08/15 01:06:52;;;;;;;15.60;6.90;;;;;;;18.17;92.34;99471.77;105876;1270;24366;-67
2022/08/15 01:09:24;;;;;;;16.50;7.00;;;;;;;18.17;92.35;99478.17;105903;1270;24394;-67
2022/08/15 01:12:03;;;;;;;15.90;6.60;;;;;;;18.14;92.52;99481.68;105803;1270;24552;-67
2022/08/15 01:14:35;;;;;;;13.20;6.00;;;;;;;18.12;92.61;99481.97;105772;1270;24370;-67
2022/08/15 01:17:09;;;;;;;17.00;6.10;;;;;;;18.10;92.52;99479.01;105743;1271;22690;-67
2022/08/15 01:19:45;;;;;;;14.30;6.30;;;;;;;18.05;92.36;99479.52;105869;1270;22564;-66
2022/08/15 01:22:34;;;;;;;14.10;6.00;;;;;;;18.01;92.40;99473.45;105818;1270;22693;-66
2022/08/15 01:25:12;;;;;;;14.30;6.30;;;;;;;17.97;92.28;99470.05;105777;1271;22620;-67
2022/08/15 01:27:50;;;;;;;13.30;5.10;;;;;;;17.93;92.30;99473.30;105993;1270;24250;-67
2022/08/15 01:30:25;;;;;;;12.40;5.20;;;;;;;17.91;92.45;99469.13;105924;1270;22778;-70
2022/08/15 01:32:58;;;;;;;13.00;4.50;;;;;;;17.88;92.61;99471.30;106020;1270;22692;-67
2022/08/15 01:35:30;;;;;;;9.90;3.60;;;;;;;17.86;92.66;99456.30;105884;1271;26608;-67
2022/08/15 01:38:02;;;;;;;11.30;4.30;;;;;;;17.82;92.70;99450.85;105915;1270;25302;-66
2022/08/15 01:40:41;;;;;;;11.40;3.30;;;;;;;17.79;92.71;99452.40;105816;1270;25380;-66
2022/08/15 01:43:17;;;;;;;9.80;3.90;;;;;;;17.76;92.81;99454.88;105748;1271;23101;-67
2022/08/15 01:45:50;;;;;;;10.50;4.00;;;;;;;17.70;92.95;99452.48;105613;1270;22556;-67
2022/08/15 01:48:28;;;;;;;10.30;3.60;;;;;;;17.68;92.93;99452.12;105883;1269;22675;-67
2022/08/15 01:51:07;;;;;;;8.70;3.40;;;;;;;17.65;92.68;99455.98;105917;1270;25855;-68
2022/08/15 01:53:46;;;;;;;9.20;3.50;;;;;;;17.61;92.51;99453.92;105730;1270;22618;-66
2022/08/15 01:56:26;;;;;;;10.20;3.50;;;;;;;17.58;92.46;99445.38;105837;1270;22626;-66
2022/08/15 01:59:01;;;;;;;10.20;4.00;;;;;;;17.55;92.35;99443.48;105788;1271;26634;-66
2022/08/15 02:01:46;;;;;;;10.80;3.70;;;;;;;17.51;92.61;99445.94;105826;1270;25641;-66
2022/08/15 02:04:21;;;;;;;11.80;4.40;;;;;;;17.49;92.39;99444.80;105843;1270;25329;-66
2022/08/15 02:06:53;;;;;;;12.40;3.90;;;;;;;17.47;92.59;99449.23;105774;1271;22617;-66
2022/08/15 02:09:25;;;;;;;12.60;4.50;;;;;;;17.46;92.51;99456.33;106081;1270;22564;-66
2022/08/15 02:12:00;;;;;;;11.50;4.20;;;;;;;17.45;92.52;99452.55;105841;1270;22804;-67
2022/08/15 02:14:33;;;;;;;12.20;4.70;;;;;;;17.43;92.64;99447.33;105979;1270;22540;-67
2022/08/15 02:17:05;;;;;;;12.10;4.30;;;;;;;17.40;92.66;99451.52;105832;1270;22864;-68
2022/08/15 02:19:38;;;;;;;12.10;4.70;;;;;;;17.39;92.56;99443.04;105819;1270;25614;-66
2022/08/15 02:22:09;;;;;;;11.40;4.50;;;;;;;17.37;92.48;99438.27;105816;1270;22687;-67
2022/08/15 02:24:41;;;;;;;11.70;4.60;;;;;;;17.35;92.58;99440.06;105736;1270;25515;-66
2022/08/15 02:27:13;;;;;;;11.80;4.50;;;;;;;17.33;92.62;99441.80;105852;1270;24301;-67
2022/08/15 02:29:45;;;;;;;13.20;4.50;;;;;;;17.33;92.57;99449.67;105987;1270;24454;-66
2022/08/15 02:32:18;;;;;;;15.10;5.30;;;;;;;17.32;92.61;99449.80;105842;1270;22617;-67
2022/08/15 02:34:50;;;;;;;15.20;5.50;;;;;;;17.29;92.61;99445.05;105811;1270;22580;-67
2022/08/15 02:37:21;;;;;;;13.60;4.80;;;;;;;17.26;92.96;99442.23;105897;1270;22663;-67
2022/08/15 02:39:54;;;;;;;16.00;5.70;;;;;;;17.23;92.86;99440.70;105990;1270;22601;-67
2022/08/15 02:42:26;;;;;;;14.60;5.00;;;;;;;17.22;92.84;99436.98;105631;1271;23313;-66
2022/08/15 02:44:58;;;;;;;14.60;5.80;;;;;;;17.21;92.84;99438.55;105887;1270;22707;-66
2022/08/15 02:47:34;;;;;;;13.20;5.80;;;;;;;17.20;92.75;99435.70;106207;1270;25258;-66
2022/08/15 02:50:08;;;;;;;15.50;5.50;;;;;;;17.18;92.60;99434.05;105986;1270;25420;-67
2022/08/15 02:52:43;;;;;;;12.60;5.00;;;;;;;17.17;93.10;99437.42;105825;1271;25449;-67
2022/08/15 02:55:15;;;;;;;14.60;6.30;;;;;;;17.17;92.98;99441.29;106167;1270;24388;-67
2022/08/15 02:57:47;;;;;;;13.30;5.90;;;;;;;17.20;93.40;99446.06;106023;1270;25257;-66
2022/08/15 03:00:20;;;;;;;15.90;6.50;;;;;;;17.21;93.65;99442.96;105884;1270;25514;-67
2022/08/15 03:02:55;;;;;;;16.90;6.70;;;;;;;17.22;93.83;99450.88;105816;1270;22613;-67
2022/08/15 03:05:31;;;;;;;14.40;7.20;;;;;;;17.24;94.47;99440.38;105745;1270;22621;-66
2022/08/15 03:08:03;;;;;;;14.10;5.90;;;;;;;17.25;94.45;99440.61;105832;1270;22568;-66
2022/08/15 03:10:36;;;;;;;14.10;5.90;;;;;;;17.25;94.26;99432.35;105928;1270;22695;-66
2022/08/15 03:13:11;;;;;;;15.10;6.30;;;;;;;17.23;94.27;99437.42;105962;1270;22472;-66
2022/08/15 03:15:49;;;;;;;15.80;5.90;;;;;;;17.22;94.30;99436.36;106236;1261;22532;31
2022/08/15 03:18:24;;;;;;;15.20;6.40;;;;;;;17.22;94.47;99431.13;105854;1270;22525;-56
2022/08/15 03:20:56;;;;;;;15.70;6.20;;;;;;;17.22;94.26;99423.86;105976;1271;25316;-55
2022/08/15 03:23:32;;;;;;;12.30;4.70;;;;;;;17.21;94.27;99425.36;109708;1271;22445;-56
2022/08/15 03:26:05;;;;;;;16.50;6.30;;;;;;;17.20;94.18;99419.64;109221;1272;25288;-57
2022/08/15 03:28:39;;;;;;;13.70;4.80;;;;;;;17.19;94.15;99417.05;106208;1273;24461;-56
2022/08/15 03:31:12;;;;;;;14.20;5.40;;;;;;;17.20;94.01;99419.19;105599;1272;26437;-56
2022/08/15 03:33:45;;;;;;;14.70;5.90;;;;;;;17.21;94.09;99420.20;105891;1271;22685;-57
2022/08/15 03:36:18;;;;;;;14.80;6.40;;;;;;;17.24;94.30;99420.39;105736;1272;24940;-57
2022/08/15 03:38:50;;;;;;;17.10;6.60;;;;;;;17.27;94.59;99411.76;105794;1271;22582;-55
2022/08/15 03:41:23;;;;;;;17.90;7.30;;;;;;;17.28;94.64;99408.30;105793;1271;22551;-57
2022/08/15 03:43:54;;;;;;;15.30;6.80;;;;;;;17.29;94.57;99407.81;105845;1272;22617;-55
2022/08/15 03:46:27;;;;;;;16.70;6.30;;;;;;;17.30;94.59;99402.45;105765;1272;22742;-55
2022/08/15 03:48:59;;;;;;;17.10;7.70;;;;;;;17.29;94.63;99399.92;105765;1272;22700;-56
2022/08/15 03:51:31;;;;;;;16.60;7.50;;;;;;;17.28;94.62;99398.24;105828;1272;25409;-56
2022/08/15 03:54:03;;;;;;;19.10;7.70;;;;;;;17.27;94.54;99395.76;105909;1271;25236;-57
2022/08/15 03:56:35;;;;;;;14.80;7.00;;;;;;;17.27;94.55;99402.67;105783;1271;25453;-58
2022/08/15 03:59:07;;;;;;;18.70;8.10;;;;;;;17.28;94.88;99407.02;105894;1271;25350;-57
2022/08/15 04:01:41;;;;;;;19.30;9.60;;;;;;;17.29;95.19;99404.73;105913;1273;26228;-57
2022/08/15 04:04:12;;;;;;;20.80;8.70;;;;;;;17.30;95.10;99403.41;105926;1272;22525;-57
2022/08/15 04:06:44;;;;;;;17.80;8.20;;;;;;;17.31;95.18;99398.13;105906;1271;25413;-56
2022/08/15 04:09:15;;;;;;;18.40;8.10;;;;;;;17.31;95.30;99394.73;105771;1271;25520;-56
2022/08/15 04:11:48;;;;;;;18.70;8.60;;;;;;;17.31;95.18;99390.54;105766;1272;25399;-59
2022/08/15 04:14:21;;;;;;;18.90;8.40;;;;;;;17.31;95.12;99399.77;105570;1273;25469;-56
2022/08/15 04:16:53;;;;;;;18.90;9.00;;;;;;;17.33;95.36;99399.71;105714;1272;22581;-58
2022/08/15 04:19:24;;;;;;;19.00;9.00;;;;;;;17.35;95.53;99399.63;105786;1272;22531;-58
2022/08/15 04:22:02;;;;;;;21.70;9.10;;;;;;;17.37;95.73;99403.59;105707;1271;25249;-57
2022/08/15 04:24:34;;;;;;;21.70;9.70;;;;;;;17.38;95.57;99398.39;105806;1272;25650;-56
2022/08/15 04:27:06;;;;;;;19.40;9.60;;;;;;;17.41;95.85;99401.31;106169;1271;25356;-56
2022/08/15 04:29:38;;;;;;;21.90;10.40;;;;;;;17.42;95.70;99404.55;105769;1271;22551;-57
2022/08/15 04:32:12;;;;;;;23.90;10.80;;;;;;;17.44;95.95;99397.63;105717;1273;22549;-58
2022/08/15 04:34:43;;;;;;;21.00;10.00;;;;;;;17.46;95.95;99399.52;105745;1272;22611;-57
2022/08/15 04:37:15;;;;;;;20.90;10.20;;;;;;;17.49;96.13;99394.87;105914;1271;22548;-58
2022/08/15 04:39:48;;;;;;;21.90;10.80;;;;;;;17.51;96.12;99394.73;106005;1273;24422;-56
2022/08/15 04:42:21;;;;;;;25.30;11.90;;;;;;;17.54;96.20;99395.05;105863;1272;22596;-58
2022/08/15 04:44:53;;;;;;;23.80;12.30;;;;;;;17.58;96.43;99393.91;105760;1273;22551;-57
2022/08/15 04:47:25;;;;;;;24.50;13.30;;;;;;;17.62;96.61;99394.17;105621;1273;24196;-57
2022/08/15 04:49:56;;;;;;;28.50;13.80;;;;;;;17.65;96.91;99408.61;105675;1273;22712;-56
2022/08/15 04:52:28;;;;;;;26.80;14.40;;;;;;;17.69;96.91;99402.80;105757;1273;22541;-57
2022/08/15 04:54:59;;;;;;;26.80;13.90;;;;;;;17.74;97.22;99396.03;105666;1271;24301;-57
2022/08/15 04:57:30;;;;;;;25.00;13.90;;;;;;;17.81;97.51;99397.34;106089;1272;25532;-56
2022/08/15 05:00:02;;;;;;;27.10;13.90;;;;;;;17.87;97.42;99399.81;105874;1272;25710;-57
2022/08/15 05:02:34;;;;;;;26.70;14.30;;;;;;;17.92;97.56;99394.90;106175;1271;22529;-58
2022/08/15 05:05:09;;;;;;;29.60;14.60;;;;;;;17.98;97.77;99394.60;105590;1271;22615;-59
2022/08/15 05:07:41;;;;;;;27.10;14.20;;;;;;;18.04;97.55;99400.91;105748;1272;22712;-56
2022/08/15 05:10:12;;;;;;;29.10;14.90;;;;;;;18.11;97.66;99400.54;105624;1273;26613;-55
2022/08/15 05:12:44;;;;;;;31.90;16.80;;;;;;;18.19;97.80;99390.08;105931;1273;25400;-60
2022/08/15 05:15:18;;;;;;;32.30;16.70;;;;;;;18.25;97.89;99393.42;105795;1273;24994;-57
2022/08/15 05:17:50;;;;;;;33.50;17.30;;;;;;;18.29;97.96;99391.05;105849;1272;22660;-54
2022/08/15 05:20:22;;;;;;;31.90;17.80;;;;;;;18.34;97.86;99389.83;105767;1273;23200;-57
2022/08/15 05:23:01;;;;;;;28.40;15.90;;;;;;;18.38;98.00;99391.98;105828;1273;23228;-59
2022/08/15 05:25:36;;;;;;;31.80;18.00;;;;;;;18.44;98.53;99392.21;105985;1273;24814;-56
2022/08/15 05:28:09;;;;;;;33.70;18.00;;;;;;;18.51;98.50;99396.67;105681;1273;25434;-55
2022/08/15 05:30:41;;;;;;;34.40;18.00;;;;;;;18.57;98.35;99397.98;105555;1273;24524;-56
2022/08/15 05:33:16;;;;;;;31.10;18.00;;;;;;;18.64;98.33;99396.08;105737;1273;22903;-56
2022/08/15 05:35:52;;;;;;;31.60;16.50;;;;;;;18.70;98.38;99395.08;105760;1273;25408;-57
2022/08/15 05:38:27;;;;;;;30.50;17.00;;;;;;;18.76;98.45;99396.48;105804;1272;22531;-57
2022/08/15 05:41:19;;;;;;;32.90;17.40;;;;;;;18.82;98.28;99402.19;105671;1271;24322;-54
2022/08/15 05:44:01;;;;;;;29.90;18.30;;;;;;;18.90;98.50;99400.48;105647;1272;22616;-57
2022/08/15 05:46:45;;;;;;;31.40;16.60;;;;;;;18.94;98.57;99406.23;105660;1273;23005;-57
2022/08/15 05:49:30;;;;;;;33.10;17.70;;;;;;;19.02;98.68;99414.08;105534;1273;22589;-55
2022/08/15 05:52:19;;;;;;;33.00;16.90;;;;;;;19.11;98.73;99416.40;105876;1273;24420;-56
2022/08/15 05:55:03;;;;;;;31.60;18.70;;;;;;;19.19;98.60;99413.98;105596;1273;24326;-59
2022/08/15 05:57:49;;;;;;;32.40;18.50;;;;;;;19.24;98.43;99414.19;105834;1273;24219;-57
2022/08/15 06:00:21;;;;;;;30.80;16.70;;;;;;;19.31;98.62;99419.25;105788;1273;24438;-55
2022/08/15 06:02:58;;;;;;;31.00;17.70;;;;;;;19.39;98.36;99420.14;105861;1273;24854;-56
2022/08/15 06:05:32;;;;;;;32.30;17.80;;;;;;;19.43;98.09;99418.86;105792;1272;24278;-55
2022/08/15 06:08:11;;;;;;;30.00;18.10;;;;;;;19.45;97.64;99417.32;105630;1271;22595;-56
2022/08/15 06:10:53;;;;;;;31.80;17.70;;;;;;;19.47;97.84;99416.58;105622;1273;25410;-57
2022/08/15 06:13:31;;;;;;;33.20;19.00;;;;;;;19.50;97.61;99419.23;105586;1273;25653;-54
2022/08/15 06:16:07;;;;;;;32.20;18.70;;;;;;;19.49;97.57;99411.83;105668;1273;22586;-55
2022/08/15 06:18:39;;;;;;;32.00;17.30;;;;;;;19.51;97.55;99412.27;105635;1273;22534;-56
2022/08/15 06:21:22;;;;;;;31.00;18.40;;;;;;;19.54;97.61;99411.70;105745;1271;24152;-56
2022/08/15 06:24:05;;;;;;;31.90;18.20;;;;;;;19.57;97.50;99418.70;105912;1273;22765;-56
2022/08/15 06:26:49;;;;;;;37.20;18.50;;;;;;;19.59;97.49;99416.86;105687;1273;24247;-55
2022/08/15 06:29:51;;;;;;;30.90;17.40;;;;;;;19.60;97.49;99414.03;105646;1273;22530;-56
2022/08/15 06:32:29;;;;;;;35.10;19.20;;;;;;;19.66;97.59;99412.07;105648;1272;25676;-56
2022/08/15 06:35:11;;;;;;;36.90;18.70;;;;;;;19.72;97.85;99414.48;105732;1273;24376;-53
2022/08/15 06:37:54;;;;;;;32.50;17.80;;;;;;;19.78;97.74;99416.49;105648;1272;24415;-58
2022/08/15 06:40:33;;;;;;;36.60;19.30;;;;;;;19.86;97.64;99412.54;105637;1273;25661;-58
2022/08/15 06:43:07;;;;;;;31.40;18.40;;;;;;;19.92;97.49;99411.93;105895;1273;22688;-56
2022/08/15 06:45:42;;;;;;;33.80;19.50;;;;;;;20.00;97.66;99415.22;105903;1271;22554;-56
2022/08/15 06:48:17;;;;;;;33.20;19.10;;;;;;;20.06;97.48;99417.49;105756;1273;23038;-58
2022/08/15 06:50:51;;;;;;;35.00;20.00;;;;;;;20.14;97.70;99417.09;105704;1273;22694;-57
2022/08/15 06:53:28;;;;;;;34.40;19.80;;;;;;;20.22;97.70;99418.10;105721;1273;25636;-56
2022/08/15 06:56:03;;;;;;;39.50;21.00;;;;;;;20.30;97.87;99426.23;105653;1273;23143;-55
2022/08/15 06:58:42;;;;;;;32.70;20.50;;;;;;;20.39;97.58;99422.12;105725;1272;24277;-52
2022/08/15 07:01:27;;;;;;;35.70;20.70;;;;;;;20.48;97.43;99426.95;105513;1271;23262;-57
2022/08/15 07:04:06;;;;;;;36.30;21.70;;;;;;;20.56;97.49;99428.16;105536;1272;22608;-58
2022/08/15 07:06:46;;;;;;;39.60;22.00;;;;;;;20.66;97.32;99426.65;105717;1272;22550;-56
2022/08/15 07:09:36;;;;;;;38.00;22.00;;;;;;;20.75;97.42;99422.70;105789;1272;25520;-59
2022/08/15 07:12:21;;;;;;;39.10;22.30;;;;;;;20.85;97.13;99423.79;105872;1271;22567;-59
2022/08/15 07:15:00;;;;;;;35.20;20.30;;;;;;;20.94;96.63;99427.24;105763;1272;22617;-55
2022/08/15 07:17:36;;;;;;;36.70;21.40;;;;;;;21.03;96.74;99425.66;105810;1273;24291;-55
2022/08/15 07:20:10;;;;;;;35.90;21.30;;;;;;;21.10;96.49;99425.95;105887;1271;22608;-56
2022/08/15 07:22:43;;;;;;;36.20;21.80;;;;;;;21.19;96.64;99426.88;105407;1271;1455309;-55
2022/08/15 07:25:18;;;;;;;33.50;20.10;;;;;;;21.27;96.01;99431.13;105952;1272;26498;-58
2022/08/15 07:28:01;;;;;;;35.90;20.40;;;;;;;21.34;96.15;99428.34;105948;1272;22548;-56
2022/08/15 07:30:47;;;;;;;38.20;20.80;;;;;;;21.43;95.85;99423.57;105575;1271;25335;-55
2022/08/15 07:33:35;;;;;;;35.20;19.90;;;;;;;21.52;95.52;99421.91;105583;1271;22549;-58
2022/08/15 07:36:15;;;;;;;35.60;20.00;;;;;;;21.61;95.54;99423.16;105729;1274;22702;-59
2022/08/15 07:38:48;;;;;;;34.60;19.50;;;;;;;21.70;95.63;99417.84;105947;1273;22705;-56
2022/08/15 07:41:24;;;;;;;36.70;19.90;;;;;;;21.78;95.00;99421.36;105829;1271;25450;-59
2022/08/15 07:44:17;;;;;;;30.20;17.70;;;;;;;21.84;94.68;99414.54;105839;1273;24375;-56
2022/08/15 07:46:56;;;;;;;32.30;19.00;;;;;;;21.88;94.19;99412.11;105865;1273;24427;-58
2022/08/15 07:49:31;;;;;;;32.70;19.70;;;;;;;21.95;94.53;99417.91;105808;1270;24431;-59
2022/08/15 07:52:07;;;;;;;29.30;17.50;;;;;;;22.02;94.39;99417.45;105844;1271;24236;-58
2022/08/15 07:54:50;;;;;;;32.10;18.90;;;;;;;22.09;93.77;99418.23;105715;1272;22677;-57
2022/08/15 07:57:27;;;;;;;36.30;20.10;;;;;;;22.18;94.03;99414.95;105601;1271;23005;-58
2022/08/15 08:00:26;;;;;;;29.70;16.80;;;;;;;22.26;93.30;99412.52;105911;1272;24379;-59
2022/08/15 08:03:03;;;;;;;28.30;16.70;;;;;;;22.33;93.07;99412.98;105271;1279;25584;-57
2022/08/15 08:05:41;;;;;;;28.80;16.30;;;;;;;22.40;92.51;99416.23;105350;1277;25430;-57
2022/08/15 08:08:14;;;;;;;28.30;15.50;;;;;;;22.47;92.49;99413.98;105371;1278;24435;-55
2022/08/15 08:10:54;;;;;;;33.20;16.90;;;;;;;22.56;92.63;99417.13;105337;1279;23581;-55
2022/08/15 08:13:39;;;;;;;26.60;15.70;;;;;;;22.65;92.34;99412.39;105268;1279;22612;-58
2022/08/15 08:16:19;;;;;;;29.10;15.80;;;;;;;22.76;91.77;99409.90;105213;1279;22542;-58
2022/08/15 08:19:03;;;;;;;28.10;15.60;;;;;;;22.84;91.68;99409.98;105398;1279;22542;-59
2022/08/15 08:21:44;;;;;;;29.50;16.90;;;;;;;22.91;91.36;99409.33;105383;1278;22700;-56
2022/08/15 08:24:23;;;;;;;29.30;16.40;;;;;;;23.02;91.21;99407.37;105450;1277;25421;-57
2022/08/15 08:27:02;;;;;;;30.30;17.40;;;;;;;23.12;91.05;99405.23;105376;1278;25533;-58
2022/08/15 08:29:43;;;;;;;24.70;14.20;;;;;;;23.19;90.43;99402.13;105256;1279;25606;-54
2022/08/15 08:32:26;;;;;;;26.10;14.90;;;;;;;23.25;90.35;99405.02;105367;1278;25408;-55
2022/08/15 08:35:07;;;;;;;28.30;15.50;;;;;;;23.33;90.33;99410.36;105293;1278;22713;-58
2022/08/15 08:37:43;;;;;;;27.70;16.70;;;;;;;23.43;90.34;99412.32;105395;1278;23587;-56
2022/08/15 08:43:35;;;;;;;30.60;15.20;;;;;;;23.59;89.32;99417.34;105477;1273;25307;-52
2022/08/15 08:46:20;;;;;;;27.20;14.80;;;;;;;23.64;88.58;99415.25;105775;1273;22537;-51
2022/08/15 08:48:59;;;;;;;24.80;14.20;;;;;;;23.73;88.59;99418.11;105872;1273;25453;-53
2022/08/15 08:51:39;;;;;;;26.70;14.90;;;;;;;23.83;88.44;99416.18;106041;1273;25579;-53
2022/08/15 08:54:17;;;;;;;26.80;15.70;;;;;;;23.91;88.09;99413.71;106128;1273;24263;-51
2022/08/15 08:56:53;;;;;;;29.70;16.00;;;;;;;24.00;88.25;99418.29;105664;1273;23871;-54
2022/08/15 08:59:31;;;;;;;30.40;16.50;;;;;;;24.11;87.90;99415.29;105714;1273;23122;-51
2022/08/15 09:02:12;;;;;;;24.40;14.20;;;;;;;24.17;87.05;99416.66;105717;1273;22635;-51
2022/08/15 09:04:52;;;;;;;24.70;15.20;;;;;;;24.24;86.37;99408.79;105825;1273;22561;-54
2022/08/15 09:07:30;;;;;;;25.90;14.20;;;;;;;24.33;86.34;99407.45;105672;1273;22568;-51
2022/08/15 09:10:06;;;;;;;29.10;15.90;;;;;;;24.41;85.91;99410.84;105957;1273;25771;-51
2022/08/15 09:15:33;;;;;;;25.30;14.30;;;;;;;24.53;85.36;99409.60;105692;1273;22547;-53
2022/08/15 09:18:12;;;;;;;24.30;13.70;;;;;;;24.64;85.38;99412.35;105876;1271;22529;-52
2022/08/15 09:20:46;;;;;;;22.80;12.50;;;;;;;24.74;84.40;99410.52;105826;1271;22528;-55
2022/08/15 09:23:20;;;;;;;25.70;14.40;;;;;;;24.79;84.20;99406.21;105804;1271;22530;-54
2022/08/15 09:26:00;;;;;;;21.60;11.90;;;;;;;24.84;83.69;99407.95;105835;1271;24444;-54
2022/08/15 09:28:36;;;;;;;21.20;11.90;;;;;;;24.93;83.29;99408.55;105777;1271;24258;-50
2022/08/15 09:31:14;;;;;;;21.30;11.30;;;;;;;24.99;82.88;99403.60;105704;1271;25315;-54
2022/08/15 09:34:12;;;;;;;23.30;11.90;;;;;;;25.05;81.65;99403.59;105949;1271;26641;-53
2022/08/15 09:37:05;;;;;;;20.80;10.60;;;;;;;25.10;81.47;99396.69;105806;1272;22675;-52
2022/08/15 09:40:05;;;;;;;24.20;11.90;;;;;;;25.16;80.83;99388.03;105648;1272;22567;-52
2022/08/15 09:43:05;;;;;;;19.10;10.40;;;;;;;25.23;80.59;99390.52;105618;1272;23221;-52
2022/08/15 09:45:53;;;;;;;19.10;10.20;;;;;;;25.32;80.88;99388.93;105674;1272;25532;-53
2022/08/15 09:48:42;;;;;;;21.10;11.00;;;;;;;25.40;80.38;99384.70;105655;1272;25321;-51
2022/08/15 09:51:38;;;;;;;20.90;11.00;;;;;;;25.46;79.90;99375.18;105733;1271;23933;-54
2022/08/15 09:54:20;;;;;;;21.10;10.80;;;;;;;25.52;79.49;99372.03;105745;1273;24094;-53
2022/08/15 09:57:12;;;;;;;22.70;12.00;;;;;;;25.55;78.49;99371.23;105690;1271;24140;-53
2022/08/15 09:59:44;;;;;;;23.30;11.60;;;;;;;25.61;78.82;99369.55;105679;1271;24291;-55
2022/08/15 10:02:27;;;;;;;25.10;12.30;;;;;;;25.67;78.34;99366.95;105986;1271;22554;-54
2022/08/15 10:05:27;;;;;;;21.30;10.70;;;;;;;25.70;77.38;99362.41;105825;1271;25602;-50
2022/08/15 10:08:02;;;;;;;17.00;9.30;;;;;;;25.70;76.02;99362.73;105396;1281;22534;-50
2022/08/15 10:10:56;;;;;;;19.60;9.80;;;;;;;25.71;75.75;99360.20;105290;1279;22667;-52
2022/08/15 10:13:45;;;;;;;18.80;9.50;;;;;;;25.71;75.36;99353.67;105321;1279;24247;-52
2022/08/15 10:16:47;;;;;;;18.90;9.90;;;;;;;25.74;75.40;99351.58;105393;1279;25657;-53
2022/08/15 10:19:36;;;;;;;18.70;8.90;;;;;;;25.81;75.73;99348.67;105180;1278;24273;-53
2022/08/15 10:22:44;;;;;;;17.30;8.80;;;;;;;25.86;74.50;99347.27;105271;1278;24237;-51
2022/08/15 10:25:28;;;;;;;16.20;8.60;;;;;;;25.89;73.93;99348.92;105554;1279;27268;-54
2022/08/15 10:28:08;;;;;;;17.70;8.40;;;;;;;25.94;73.32;99341.85;105404;1279;22551;-50
2022/08/15 10:30:46;;;;;;;18.70;8.60;;;;;;;25.98;73.60;99340.98;105281;1277;24258;-54
2022/08/15 10:33:38;;;;;;;17.10;8.60;;;;;;;26.05;73.83;99338.54;105374;1278;24254;-55
2022/08/15 10:36:26;;;;;;;17.00;8.10;;;;;;;26.12;72.91;99329.99;105317;1280;25527;-52
2022/08/15 10:39:11;;;;;;;16.40;7.20;;;;;;;26.18;72.01;99326.96;105342;1279;24436;-58
2022/08/15 10:42:03;;;;;;;15.10;7.00;;;;;;;26.21;71.22;99328.63;105230;1278;24324;-51
2022/08/15 10:44:48;;;;;;;14.20;7.00;;;;;;;26.27;71.04;99335.05;105495;1274;22822;-53
2022/08/15 10:47:32;;;;;;;13.20;6.70;;;;;;;26.31;69.74;99339.06;105710;1271;22567;-51
2022/08/15 10:50:15;;;;;;;14.50;7.20;;;;;;;26.35;70.06;99336.48;105532;1271;22528;-52
2022/08/15 10:53:00;;;;;;;15.30;7.70;;;;;;;26.40;69.54;99334.36;105777;1271;22699;-56
2022/08/15 10:55:34;;;;;;;13.80;6.40;;;;;;;26.45;69.82;99327.41;107677;1271;22554;-52
2022/08/15 10:58:18;;;;;;;15.60;7.20;;;;;;;26.52;69.79;99328.30;105533;1271;22532;-53
2022/08/15 11:00:56;;;;;;;16.10;7.90;;;;;;;26.59;69.10;99326.67;105610;1271;22564;-55
2022/08/15 11:03:41;;;;;;;15.30;7.10;;;;;;;26.64;68.81;99320.86;105691;1271;22618;-54
2022/08/15 11:06:15;;;;;;;14.10;7.70;;;;;;;26.72;68.79;99323.52;105674;1271;22547;-52
2022/08/15 11:08:50;;;;;;;16.20;7.80;;;;;;;26.77;68.33;99320.20;105736;1271;24307;-51
2022/08/15 11:11:25;;;;;;;18.20;8.80;;;;;;;26.83;68.00;99313.25;106256;1272;22573;-53
2022/08/15 11:14:01;;;;;;;16.90;8.40;;;;;;;26.90;67.28;99313.00;105613;1271;22704;-52
2022/08/15 11:16:36;;;;;;;17.20;9.20;;;;;;;26.94;67.63;99307.73;105591;1272;25459;-52
2022/08/15 11:19:20;;;;;;;16.00;8.70;;;;;;;26.99;67.69;99305.15;105602;1271;22559;-54
2022/08/15 11:21:56;;;;;;;18.30;8.30;;;;;;;27.04;67.29;99312.67;105964;1271;22544;-54
2022/08/15 11:24:37;;;;;;;14.30;7.30;;;;;;;27.10;67.15;99313.20;105667;1273;24992;-54
2022/08/15 11:27:14;;;;;;;13.60;7.30;;;;;;;27.15;66.51;99319.27;105647;1271;24038;-55
2022/08/15 11:29:47;;;;;;;16.80;7.00;;;;;;;27.17;65.54;99323.56;108119;1271;23089;-54
2022/08/15 11:32:28;;;;;;;14.90;6.70;;;;;;;27.23;65.68;99320.25;105515;1271;25360;-53
2022/08/15 11:35:00;;;;;;;15.00;6.20;;;;;;;27.32;64.61;99317.45;105579;1271;23191;-52
2022/08/15 11:37:42;;;;;;;13.60;6.40;;;;;;;27.38;64.55;99318.90;105748;1271;22979;-54
2022/08/15 11:40:28;;;;;;;12.90;6.70;;;;;;;27.44;63.71;99317.15;105907;1271;25490;-50
2022/08/15 11:43:01;;;;;;;15.00;7.20;;;;;;;27.48;63.65;99321.41;105892;1271;22776;-53
2022/08/15 11:45:38;;;;;;;12.50;6.50;;;;;;;27.52;63.22;99314.34;105702;1271;24469;-52
2022/08/15 11:48:19;;;;;;;13.50;6.40;;;;;;;27.54;62.68;99302.90;105684;1271;25295;-54
2022/08/15 11:51:01;;;;;;;16.50;7.30;;;;;;;27.58;62.83;99300.13;106033;1271;22553;-52
2022/08/15 11:53:39;;;;;;;15.20;6.20;;;;;;;27.64;62.75;99300.52;105761;1271;47834;-55
2022/08/15 11:56:10;;;;;;;15.00;7.00;;;;;;;27.70;62.12;99298.90;106168;1271;22568;-51
2022/08/15 11:58:44;;;;;;;15.20;6.60;;;;;;;27.76;61.73;99299.13;105595;1271;22549;-55
2022/08/15 12:01:32;;;;;;;15.70;7.30;;;;;;;27.84;61.73;99300.36;106032;1271;27604;-55
2022/08/15 12:04:07;;;;;;;13.70;6.70;;;;;;;27.92;61.30;99301.73;105850;1271;24372;-51
2022/08/15 12:06:41;;;;;;;13.90;6.30;;;;;;;27.96;60.38;99300.40;105637;1271;22552;-54
2022/08/15 12:09:20;;;;;;;14.80;7.00;;;;;;;27.98;60.26;99304.43;105620;1271;22563;-55
2022/08/15 12:11:53;;;;;;;18.10;7.20;;;;;;;28.02;60.43;99304.77;105607;1271;22583;-55